CST,Max TemperatureF,Mean TemperatureF,Min TemperatureF,Max Dew PointF,MeanDew PointF,Min DewpointF,Max Humidity, Mean Humidity, Min Humidity, Max Sea Level PressureIn, Mean Sea Level PressureIn, Min Sea Level PressureIn, Max VisibilityMiles, Mean VisibilityMiles, Min VisibilityMiles, Max Wind SpeedMPH, Mean Wind SpeedMPH, Max Gust SpeedMPH,PrecipitationIn, CloudCover, Events, WindDirDegrees
2012-12-1,69,47,25,36,30,23,92,62,32,29.95,29.86,29.76,10,8,4,13,3,17,0.00,0,,282
2012-12-2,69,46,22,37,30,21,100,62,24,30.02,29.87,29.65,10,10,10,22,7,26,0.00,0,,179
2012-12-3,59,40,20,37,26,14,92,57,22,30.17,29.87,29.59,10,9,5,32,10,41,0.00,0,,306
2012-12-4,60,38,15,25,17,12,84,52,19,30.35,30.27,30.18,10,10,10,10,3,13,0.00,0,,307
2012-12-5,59,42,24,24,20,16,75,50,24,30.23,29.99,29.79,10,10,10,28,13,36,0.00,0,,167
2012-12-6,51,43,34,31,23,15,70,48,26,30.04,29.96,29.79,10,10,10,24,9,30,T,5,,343
2012-12-7,47,33,18,27,23,17,92,66,40,30.06,29.97,29.87,10,9,6,22,6,28,0.00,4,,319
2012-12-8,36,27,18,29,25,17,92,81,70,30.04,29.90,29.74,10,7,2,17,7,24,0.00,6,,160
2012-12-9,35,20,5,26,6,0,83,69,54,30.36,30.11,29.85,10,10,9,39,23,47,T,4,Snow,319
2012-12-10,35,15,-6,14,3,-9,87,58,29,30.28,30.07,29.91,10,10,10,14,4,17,0.00,0,,275
2012-12-11,44,28,12,19,13,8,88,59,30,30.06,29.99,29.83,10,10,10,16,9,21,0.00,0,,247
2012-12-12,52,37,22,14,13,11,59,40,21,29.91,29.87,29.80,10,10,10,25,11,29,0.00,0,,191
2012-12-13,50,33,16,25,16,10,80,60,39,30.11,30.03,29.89,10,10,10,9,2,12,0.00,0,,319
2012-12-14,45,27,9,41,25,7,92,68,43,30.05,29.76,29.50,10,8,2,16,4,21,0.11,3,Rain,178
2012-12-15,40,34,28,39,33,21,100,85,70,29.80,29.58,29.45,10,6,1,23,12,28,0.03,7,Rain,322
2012-12-16,42,34,25,22,20,16,81,60,38,29.85,29.79,29.73,10,10,10,10,5,14,0.00,5,,269
2012-12-17,45,30,14,25,22,14,92,66,40,29.79,29.67,29.51,10,10,7,15,6,20,0.00,0,,199
2012-12-18,50,34,18,29,22,15,92,61,29,29.86,29.69,29.48,10,10,5,29,10,38,0.00,2,,304
2012-12-19,35,29,22,27,22,17,92,72,51,30.05,29.89,29.80,10,4,0,31,15,38,0.03,8,Fog-Snow,6
2012-12-20,30,15,0,14,10,0,91,70,49,30.32,30.19,30.01,10,10,9,26,11,33,0.00,1,,314
2012-12-21,35,17,-1,22,9,-4,95,76,56,30.35,30.27,30.17,10,10,7,8,3,9,0.00,0,,116
2012-12-22,42,24,5,25,15,4,92,70,48,30.14,30.06,29.96,10,9,2,17,7,22,0.00,0,,334
2012-12-23,26,17,8,17,11,4,96,85,73,30.16,30.06,29.97,10,6,2,20,6,24,T,4,Snow,338
2012-12-24,17,12,6,7,4,1,88,75,61,30.35,30.22,30.03,10,10,10,18,10,22,0.00,4,,4
2012-12-25,15,7,-2,4,1,-5,87,76,64,30.58,30.49,30.36,10,10,10,17,9,22,0.00,5,,353
2012-12-26,19,8,-4,7,2,-7,91,76,61,30.43,30.27,30.07,10,10,10,12,4,15,0.00,2,,151
2012-12-27,20,15,10,16,13,6,92,84,76,30.11,29.96,29.87,10,4,1,14,7,18,0.00,8,Snow,120
2012-12-28,17,7,-4,11,5,-7,95,84,73,30.22,30.10,29.99,10,8,4,18,9,22,T,5,Snow,319
2012-12-29,32,12,-8,20,7,-10,92,76,59,30.31,30.26,30.13,10,10,10,14,3,16,0.00,0,,275
2012-12-30,33,21,9,19,14,6,92,73,54,30.22,30.11,29.99,10,10,9,21,7,24,0.00,0,,256
2012-12-31,22,20,17,19,16,13,92,86,80,30.30,30.22,30.10,10,8,4,16,7,18,0.00,7,,358